Погода Староковыльныйна неделю

Ростовская область, Россия

15 - 21 июля
  • 15июля
    Сегодня
    +23°
    +38°
    Ясно и безоблачно
    ВремяПогодаТемператураВлажностьДавлениеВетер, м/сВероятность осадков
    00:00Ясно и безоблачно+24°C29 %756 мм3.2 м/с2 %
    03:00Ясно и безоблачно+22°C30 %756 мм2.2 м/с2 %
    06:00Ясно и безоблачно+22°C27 %756 мм2.9 м/с2 %
    09:00Ясно и безоблачно+31°C19 %756 мм3.4 м/с2 %
    12:00Ясно и безоблачно+35°C23 %755 мм4.4 м/с2 %
    15:00Ясно и безоблачно+37°C22 %754 мм4.1 м/с2 %
    18:00Практически безоблачно+37°C22 %754 мм3.3 м/с2 %
    21:00Ясно и безоблачно+31°C31 %755 мм3.2 м/с2 %
  • 16июля
    Вторник
    +24°
    +39°
    Небольшая облачность
    ВремяПогодаТемператураВлажностьДавлениеВетер, м/сВероятность осадков
    00:00Ясно и безоблачно+27°C41 %755 мм1.9 м/с2 %
    03:00Ясно и безоблачно+24°C42 %755 мм2.4 м/с2 %
    06:00Ясно и безоблачно+25°C38 %755 мм3.0 м/с2 %
    09:00Ясно и безоблачно+33°C27 %756 мм2.8 м/с2 %
    12:00Ясно и безоблачно+37°C21 %755 мм4.1 м/с2 %
    15:00Небольшая облачность+39°C17 %754 мм4.6 м/с2 %
    18:00Практически безоблачно+37°C19 %754 мм4.2 м/с2 %
    21:00Практически безоблачно+31°C26 %755 мм2.3 м/с2 %
  • 17июля
    Среда
    +25°
    +39°
    Облачно с прояснениями
    ВремяПогодаТемператураВлажностьДавлениеВетер, м/сВероятность осадков
    00:00Ясно и безоблачно+28°C31 %755 мм2.6 м/с2 %
    03:00Ясно и безоблачно+25°C37 %755 мм2.8 м/с2 %
    06:00Ясно и безоблачно+25°C38 %756 мм2.8 м/с2 %
    09:00Ясно и безоблачно+34°C26 %756 мм2.2 м/с2 %
    12:00Ясно и безоблачно+38°C19 %756 мм1.7 м/с2 %
    15:00Облачно с прояснениями+38°C18 %755 мм2.5 м/с2 %
    18:00Практически безоблачно+37°C19 %755 мм4.6 м/с2 %
    21:00Ясно и безоблачно+33°C27 %756 мм4.0 м/с2 %
  • 18июля
    Четверг
    +25°
    +39°
    Ясно и безоблачно
    ВремяПогодаТемператураВлажностьДавлениеВетер, м/сВероятность осадков
    00:00Ясно и безоблачно+29°C34 %756 мм3.9 м/с2 %
    03:00Ясно и безоблачно+27°C41 %756 мм3.7 м/с2 %
    06:00Ясно и безоблачно+26°C44 %756 мм3.7 м/с2 %
    09:00Ясно и безоблачно+34°C30 %756 мм3.5 м/с2 %
    12:00Ясно и безоблачно+37°C22 %756 мм3.3 м/с2 %
    15:00Ясно и безоблачно+39°C19 %754 мм2.4 м/с2 %
    18:00Ясно и безоблачно+39°C19 %754 мм3.3 м/с2 %
    21:00Ясно и безоблачно+32°C26 %754 мм2.1 м/с2 %
  • 19июля
    Пятница
    +23°
    +38°
    Облачно с прояснениями
    ВремяПогодаТемператураВлажностьДавлениеВетер, м/сВероятность осадков
    00:00Ясно и безоблачно+29°C32 %754 мм2.3 м/с2 %
    03:00Ясно и безоблачно+27°C44 %754 мм3.9 м/с2 %
    06:00Ясно и безоблачно+26°C49 %754 мм3.6 м/с2 %
    09:00Практически безоблачно+33°C37 %754 мм3.6 м/с2 %
    12:00Небольшая облачность, возможен дождь с грозой+35°C34 %754 мм3.3 м/с10 %
    15:00Облачно с прояснениями+37°C30 %753 мм1.8 м/с28 %
    18:00Облачно с прояснениями+37°C31 %752 мм4.1 м/с22 %
    21:00Облачно с прояснениями+32°C32 %752 мм4.2 м/с4 %
Мы используем cookies
Соглашаюсь